Time;durP1;ratioP1;P1;durP2;ratioP2;P2;SDS_P1;SDS_P2;PMS_P1;PMS_P2;Temp;Humidity;BMP_temperature;BMP_pressure;BME280_temperature;BME280_humidity;BME280_pressure;Samples;Min_cycle;Max_cycle;Signal;HPM_P1;HPM_P2
2022/08/08 00:07:51;;;;;;;2.13;0.90;;;;;;;17.89;46.50;100721.03;20905527;28;20524;-74
2022/08/08 00:17:55;;;;;;;3.45;1.10;;;;;;;17.73;48.18;100733.16;20905098;28;20049;-76
2022/08/08 00:28:04;;;;;;;2.92;1.10;;;;;;;17.32;49.09;100738.25;20904197;28;20049;-78
2022/08/08 00:38:26;;;;;;;3.28;1.20;;;;;;;17.08;50.09;100755.91;20903260;28;20048;-76
2022/08/08 00:48:32;;;;;;;3.78;0.80;;;;;;;16.93;50.92;100738.81;20906106;28;20053;-76
2022/08/08 00:58:34;;;;;;;2.58;0.93;;;;;;;16.77;50.34;100753.50;20901487;28;20614;-75
2022/08/08 01:08:36;;;;;;;6.40;1.23;;;;;;;16.65;51.50;100749.50;20906009;28;20123;-76
2022/08/08 01:18:37;;;;;;;5.00;1.10;;;;;;;16.53;51.32;100755.19;20910211;28;20203;-76
2022/08/08 01:28:54;;;;;;;2.63;1.08;;;;;;;16.51;50.88;100763.19;20945252;22;20045;-71
2022/08/08 01:38:59;;;;;;;1.57;0.70;;;;;;;16.70;49.56;100763.41;20898042;28;20053;-71
2022/08/08 01:49:00;;;;;;;1.98;1.00;;;;;;;16.82;48.92;100762.16;20897929;28;20053;-68
2022/08/08 01:59:02;;;;;;;2.75;1.00;;;;;;;16.69;49.99;100751.13;20897326;28;20051;-71
2022/08/08 02:09:09;;;;;;;4.75;1.00;;;;;;;16.35;51.92;100764.63;20895911;28;20128;-69
2022/08/08 02:19:18;;;;;;;3.65;0.80;;;;;;;16.13;52.19;100757.41;20895988;28;20163;-68
2022/08/08 02:29:39;;;;;;;1.88;0.88;;;;;;;16.00;53.13;100758.75;20896376;28;20053;-69
2022/08/08 02:39:52;;;;;;;3.60;1.08;;;;;;;15.90;53.74;100766.09;20892607;28;20051;-68
2022/08/08 02:50:00;;;;;;;2.00;0.80;;;;;;;15.78;55.87;100768.25;20892777;28;20045;-69
2022/08/08 03:00:02;;;;;;;2.60;1.00;;;;;;;15.57;56.18;100762.69;20891380;28;20623;-66
2022/08/08 03:10:23;;;;;;;3.08;1.00;;;;;;;15.49;56.28;100769.13;20890824;28;20110;-66
2022/08/08 03:20:37;;;;;;;2.45;0.95;;;;;;;15.31;57.52;100762.59;20889541;28;20052;-66
2022/08/08 03:30:41;;;;;;;3.30;1.33;;;;;;;15.35;55.74;100766.88;20887839;28;20045;-66
2022/08/08 03:40:50;;;;;;;3.40;1.00;;;;;;;15.28;55.67;100773.22;20889320;28;20490;-66
2022/08/08 03:50:52;;;;;;;2.40;0.90;;;;;;;15.27;55.75;100788.19;20888516;28;20064;-66
2022/08/08 04:00:53;;;;;;;2.70;1.05;;;;;;;15.18;55.21;100790.25;20888090;28;20079;-66
2022/08/08 04:11:14;;;;;;;3.70;0.88;;;;;;;15.10;55.44;100793.97;20889033;28;20048;-67
2022/08/08 04:21:20;;;;;;;3.03;1.10;;;;;;;15.33;54.16;100792.44;20887775;28;20053;-66
2022/08/08 04:31:23;;;;;;;7.10;1.10;;;;;;;15.13;54.91;100800.91;20886852;28;20045;-66
2022/08/08 04:41:44;;;;;;;2.40;0.80;;;;;;;15.26;54.15;100809.34;20903620;28;20455;-66
2022/08/08 04:51:46;;;;;;;5.18;1.08;;;;;;;15.89;52.43;100826.88;20900656;28;20136;-66
2022/08/08 05:01:57;;;;;;;3.33;0.90;;;;;;;15.61;54.33;100838.22;20895580;28;20048;-66
2022/08/08 05:12:02;;;;;;;5.40;1.05;;;;;;;15.68;54.04;100851.28;20893865;28;20585;-65
2022/08/08 05:22:03;;;;;;;4.32;0.80;;;;;;;15.94;53.81;100861.91;20898670;28;20041;-65
2022/08/08 05:32:07;;;;;;;3.20;0.90;;;;;;;16.18;53.41;100865.56;20897259;28;20520;-66
2022/08/08 05:42:08;;;;;;;3.22;1.10;;;;;;;16.53;52.21;100877.69;20897095;28;20122;-66
2022/08/08 05:52:10;;;;;;;2.88;1.00;;;;;;;16.75;51.73;100882.28;20895490;28;20588;-66
2022/08/08 06:03:09;;;;;;;3.38;0.82;;;;;;;16.85;51.82;100883.69;20892731;28;20055;-65
2022/08/08 06:12:33;;;;;;;5.50;1.10;;;;;;;17.14;51.18;100893.28;20894620;28;20048;-66
2022/08/08 06:22:37;;;;;;;8.93;1.23;;;;;;;17.56;49.97;100898.81;20894801;28;20439;-66
2022/08/08 06:32:42;;;;;;;3.15;1.00;;;;;;;17.83;49.10;100906.72;20891559;28;20056;-65
2022/08/08 06:42:50;;;;;;;4.88;0.90;;;;;;;18.14;48.89;100907.25;20892213;28;20094;-66
2022/08/08 06:52:53;;;;;;;8.38;1.10;;;;;;;18.41;48.79;100915.03;20892541;28;20131;-66
2022/08/08 07:02:56;;;;;;;3.78;1.13;;;;;;;18.99;46.77;100914.47;20890857;28;20051;-66
2022/08/08 07:12:57;;;;;;;5.72;1.25;;;;;;;19.18;46.24;100924.22;20887628;28;20139;-65
2022/08/08 07:22:59;;;;;;;3.95;0.90;;;;;;;19.43;45.93;100929.34;20890678;28;20045;-66
2022/08/08 07:33:01;;;;;;;7.03;1.20;;;;;;;19.89;45.39;100927.31;20888194;28;20145;-65
2022/08/08 07:43:03;;;;;;;2.13;1.00;;;;;;;20.12;44.29;100930.69;20886270;28;20049;-66
2022/08/08 07:53:10;;;;;;;2.72;1.20;;;;;;;20.66;41.51;100932.53;20886358;28;20045;-69
2022/08/08 08:03:31;;;;;;;3.10;1.02;;;;;;;20.86;42.54;100939.53;20885438;28;20066;-67
2022/08/08 08:13:43;;;;;;;6.88;1.17;;;;;;;21.20;40.79;100938.69;20894686;28;20541;-67
2022/08/08 08:24:04;;;;;;;5.22;1.10;;;;;;;21.66;40.29;100938.97;20898735;28;20092;-72
2022/08/08 08:34:11;;;;;;;3.95;1.10;;;;;;;22.28;40.03;100934.72;20902523;28;20147;-69
2022/08/08 08:44:12;;;;;;;4.07;1.13;;;;;;;22.51;39.70;100930.72;20901954;28;20508;-67
2022/08/08 08:54:16;;;;;;;3.47;1.20;;;;;;;22.71;39.73;100924.28;20901730;28;20413;-66
2022/08/08 09:04:25;;;;;;;6.40;1.73;;;;;;;23.11;39.19;100913.09;20900586;28;20045;-67
2022/08/08 09:14:32;;;;;;;4.63;1.65;;;;;;;23.63;39.06;100913.44;20900195;28;20155;-69
2022/08/08 09:24:37;;;;;;;3.65;1.40;;;;;;;23.77;38.90;100916.16;20898843;28;20132;-66
2022/08/08 09:34:40;;;;;;;2.90;1.30;;;;;;;24.14;38.55;100918.28;20897556;28;20057;-64
2022/08/08 09:44:45;;;;;;;5.25;1.92;;;;;;;24.38;38.95;100914.06;20898087;28;20103;-64
2022/08/08 09:54:47;;;;;;;4.18;1.92;;;;;;;25.03;38.14;100907.97;20897332;28;20049;-64
2022/08/08 10:04:48;;;;;;;8.90;1.73;;;;;;;24.93;38.49;100898.84;20896244;28;20632;-65
2022/08/08 10:14:52;;;;;;;9.40;2.08;;;;;;;25.20;38.54;100905.03;20896396;28;20449;-65
2022/08/08 10:24:54;;;;;;;2.97;1.60;;;;;;;25.58;36.89;100896.09;20893997;28;20072;-65
2022/08/08 10:34:55;;;;;;;9.45;1.90;;;;;;;25.86;36.09;100886.13;20893162;28;20044;-65
2022/08/08 10:45:01;;;;;;;4.55;1.50;;;;;;;26.07;34.50;100885.44;20894251;28;20048;-65
2022/08/08 10:55:09;;;;;;;3.90;1.25;;;;;;;26.46;33.89;100871.91;20892555;28;20056;-65
2022/08/08 11:05:12;;;;;;;5.07;1.60;;;;;;;26.42;32.47;100865.88;20888490;28;20604;-65
2022/08/08 11:15:17;;;;;;;8.45;1.42;;;;;;;26.74;30.47;100851.91;20890664;28;20057;-66
2022/08/08 11:25:19;;;;;;;1.63;0.95;;;;;;;26.74;29.60;100841.16;20890525;28;20056;-65
2022/08/08 11:35:40;;;;;;;4.05;1.42;;;;;;;26.86;29.37;100841.03;20890418;28;20082;-65
2022/08/08 11:45:43;;;;;;;3.53;1.33;;;;;;;26.93;30.09;100827.16;20896363;28;20052;-66
2022/08/08 11:56:05;;;;;;;3.40;1.33;;;;;;;27.41;29.81;100824.31;20907326;28;20052;-67
2022/08/08 12:06:08;;;;;;;4.13;1.40;;;;;;;27.06;29.50;100803.69;20904924;28;20409;-66
2022/08/08 12:16:10;;;;;;;3.20;1.30;;;;;;;27.67;28.40;100806.91;20903524;28;20047;-66
2022/08/08 12:26:11;;;;;;;4.93;1.35;;;;;;;27.63;28.30;100802.75;20903310;28;20052;-66
2022/08/08 12:36:28;;;;;;;2.63;1.13;;;;;;;27.91;28.04;100797.84;20902060;28;20103;-66
2022/08/08 12:46:34;;;;;;;5.40;1.55;;;;;;;27.89;27.79;100794.44;20901759;28;20052;-66
2022/08/08 12:56:36;;;;;;;4.18;1.00;;;;;;;28.00;26.71;100784.50;20900588;28;20052;-65
2022/08/08 13:06:38;;;;;;;4.38;1.73;;;;;;;27.65;27.82;100768.53;20898308;28;20049;-66
2022/08/08 13:16:41;;;;;;;5.32;1.20;;;;;;;28.03;27.22;100768.09;20899336;28;20584;-64
2022/08/08 13:26:49;;;;;;;5.18;1.90;;;;;;;28.18;26.89;100770.50;20899795;28;20412;-65
2022/08/08 13:36:57;;;;;;;1.63;1.00;;;;;;;28.40;26.30;100764.16;20897656;28;20516;-64
2022/08/08 13:46:59;;;;;;;4.18;1.10;;;;;;;28.34;26.23;100744.84;20897905;28;20106;-64
2022/08/08 13:57:02;;;;;;;2.43;1.20;;;;;;;28.70;25.94;100734.63;20896935;28;20056;-65
2022/08/08 14:07:03;;;;;;;3.30;1.30;;;;;;;28.47;26.18;100739.28;20894924;28;20057;-64
2022/08/08 14:17:04;;;;;;;3.78;1.10;;;;;;;28.77;25.42;100724.16;20895009;28;20064;-64
2022/08/08 14:27:06;;;;;;;4.03;1.00;;;;;;;28.76;25.81;100720.59;20894107;28;20048;-64
2022/08/08 14:37:08;;;;;;;2.03;0.90;;;;;;;28.66;25.80;100717.00;20893089;28;20551;-64
2022/08/08 14:47:09;;;;;;;2.33;1.10;;;;;;;28.83;25.21;100720.91;20893113;28;20044;-64
2022/08/08 14:57:22;;;;;;;3.00;1.30;;;;;;;28.86;25.14;100697.25;20891339;28;20079;-64
2022/08/08 15:07:43;;;;;;;3.05;1.00;;;;;;;29.14;25.72;100700.25;20889967;28;20044;-64
2022/08/08 15:18:00;;;;;;;3.60;1.02;;;;;;;28.94;25.74;100698.41;20888277;28;20045;-64
2022/08/08 15:28:01;;;;;;;2.83;1.17;;;;;;;29.01;26.18;100696.91;20888667;28;20482;-64
2022/08/08 15:38:23;;;;;;;4.88;1.20;;;;;;;28.99;25.69;100701.59;20887911;28;20053;-64
2022/08/08 15:48:25;;;;;;;2.70;1.13;;;;;;;28.98;25.39;100691.78;20888957;28;20171;-69
2022/08/08 15:58:27;;;;;;;5.38;1.45;;;;;;;29.32;25.11;100689.63;20889557;28;20053;-64
2022/08/08 16:08:32;;;;;;;1.75;1.00;;;;;;;29.19;25.79;100676.41;20884101;28;20071;-64
2022/08/08 16:18:33;;;;;;;3.35;1.20;;;;;;;29.47;25.13;100668.53;20885151;28;20060;-65
2022/08/08 16:28:35;;;;;;;2.57;1.17;;;;;;;29.47;25.42;100657.75;20883922;28;20106;-67
2022/08/08 16:38:41;;;;;;;4.93;1.20;;;;;;;29.19;24.90;100668.31;20899176;28;20107;-68
2022/08/08 16:48:47;;;;;;;4.95;1.20;;;;;;;29.31;24.54;100669.91;20898661;28;20045;-67
2022/08/08 16:58:49;;;;;;;3.80;0.98;;;;;;;29.19;24.40;100675.56;20898443;28;20532;-67
2022/08/08 17:08:51;;;;;;;5.13;1.02;;;;;;;29.09;24.34;100676.38;20891086;28;20045;-66
2022/08/08 17:18:52;;;;;;;2.67;0.85;;;;;;;29.14;24.68;100675.97;20895516;28;20049;-66
2022/08/08 17:28:54;;;;;;;3.17;1.13;;;;;;;28.88;24.72;100684.47;20895949;28;20520;-68
2022/08/08 17:38:56;;;;;;;1.53;0.80;;;;;;;28.74;24.67;100690.22;20891905;28;20559;-66
2022/08/08 17:49:05;;;;;;;2.63;1.10;;;;;;;28.59;24.84;100691.56;20891568;28;20048;-66
2022/08/08 17:59:09;;;;;;;3.55;1.10;;;;;;;28.23;25.49;100696.41;20888538;28;20545;-66
2022/08/08 18:09:11;;;;;;;3.13;0.90;;;;;;;28.07;25.58;100709.44;20889366;28;20041;-65
2022/08/08 18:19:16;;;;;;;4.27;0.77;;;;;;;27.78;26.61;100710.06;20889989;28;20091;-66
2022/08/08 18:29:19;;;;;;;8.77;1.20;;;;;;;27.20;27.20;100709.41;20889958;28;20377;-66
2022/08/08 18:39:29;;;;;;;5.43;1.00;;;;;;;26.69;27.91;100720.63;20888074;28;20056;-69
2022/08/08 18:49:32;;;;;;;3.72;1.00;;;;;;;26.27;29.60;100730.97;20888337;28;20076;-68
2022/08/08 18:59:55;;;;;;;5.82;1.20;;;;;;;25.77;30.33;100754.38;20887413;28;20059;-71
2022/08/08 19:09:57;;;;;;;;;;;;;;;25.78;28.75;100772.22;20886538;28;20047;-70
2022/08/08 19:20:16;;;;;;;3.88;1.00;;;;;;;26.23;27.55;100796.59;20886428;28;21218;-67
2022/08/08 19:30:19;;;;;;;3.37;1.07;;;;;;;25.75;29.28;100793.88;20884965;28;20049;-69
2022/08/08 19:40:26;;;;;;;3.95;1.00;;;;;;;25.13;30.30;100811.75;20884985;28;20059;-69
2022/08/08 19:50:32;;;;;;;2.03;0.90;;;;;;;24.78;30.86;100823.06;20885484;28;20336;-68
2022/08/08 20:00:35;;;;;;;3.70;1.00;;;;;;;24.53;31.31;100824.72;20883583;28;20047;-70
2022/08/08 20:10:37;;;;;;;7.07;1.13;;;;;;;24.37;30.99;100828.53;20896415;28;20107;-68
2022/08/08 20:20:39;;;;;;;4.78;1.20;;;;;;;24.23;31.58;100837.41;20900617;28;20049;-67
2022/08/08 20:30:41;;;;;;;5.07;0.85;;;;;;;23.94;32.58;100842.00;20898208;28;20049;-69
2022/08/08 20:41:00;;;;;;;5.75;1.40;;;;;;;23.57;33.63;100844.28;20897770;28;20049;-68
2022/08/08 20:51:19;;;;;;;7.22;1.55;;;;;;;23.45;33.59;100850.44;20897360;28;20045;-68
2022/08/08 21:01:21;;;;;;;5.75;1.80;;;;;;;23.29;34.05;100851.38;20897002;28;20048;-70
2022/08/08 21:11:26;;;;;;;9.70;6.78;;;;;;;22.93;34.63;100858.94;20894762;28;20040;-69
2022/08/08 21:21:47;;;;;;;9.55;5.85;;;;;;;22.78;35.42;100856.22;20892707;28;20118;-68
2022/08/08 21:31:48;;;;;;;11.10;5.05;;;;;;;22.46;35.91;100859.91;20894104;28;20044;-68
2022/08/08 21:41:59;;;;;;;5.85;1.40;;;;;;;22.23;36.62;100858.53;20893671;28;20053;-68
2022/08/08 21:52:00;;;;;;;1.90;1.00;;;;;;;21.90;37.49;100861.28;20891833;28;20049;-68
2022/08/08 22:02:22;;;;;;;3.42;1.10;;;;;;;21.60;38.78;100859.34;20891306;28;20044;-68
2022/08/08 22:12:24;;;;;;;3.90;1.33;;;;;;;21.46;39.10;100862.78;20894160;28;20072;-68
2022/08/08 22:22:26;;;;;;;5.38;1.00;;;;;;;21.25;39.22;100864.72;20892588;28;20049;-67
2022/08/08 22:32:30;;;;;;;2.72;1.23;;;;;;;21.22;39.23;100862.25;20892122;28;20068;-68
2022/08/08 22:42:31;;;;;;;6.65;1.30;;;;;;;20.98;40.04;100868.81;20891120;28;20037;-67
2022/08/08 22:52:35;;;;;;;5.78;1.27;;;;;;;20.86;40.34;100862.34;20891827;28;20059;-67
2022/08/08 23:02:36;;;;;;;4.72;1.15;;;;;;;20.67;41.09;100878.38;20889586;28;20048;-67
2022/08/08 23:12:38;;;;;;;4.15;1.30;;;;;;;20.54;41.56;100876.41;20888271;28;20041;-67
2022/08/08 23:22:41;;;;;;;2.25;1.25;;;;;;;20.32;42.43;100882.75;20889972;28;20139;-66
2022/08/08 23:32:43;;;;;;;5.63;1.23;;;;;;;20.06;43.23;100883.13;20890035;28;20412;-70
2022/08/08 23:42:45;;;;;;;4.72;1.30;;;;;;;19.98;43.88;100886.16;20888204;28;20110;-68
2022/08/08 23:52:46;;;;;;;3.40;1.30;;;;;;;19.70;44.90;100883.91;20887624;28;20049;-67
